sensor_id;sensor_type;location;lat;lon;timestamp;P1;durP1;ratioP1;P2;durP2;ratioP2
11024;SDS011;22890;51.820;8.682;2023-03-01T00:02:10;4.00;;;3.00;;
11024;SDS011;22890;51.820;8.682;2023-03-01T00:04:37;2.87;;;2.20;;
11024;SDS011;22890;51.820;8.682;2023-03-01T00:07:04;5.43;;;2.53;;
11024;SDS011;22890;51.820;8.682;2023-03-01T00:09:31;3.83;;;2.60;;
11024;SDS011;22890;51.820;8.682;2023-03-01T00:11:58;2.80;;;2.37;;
11024;SDS011;22890;51.820;8.682;2023-03-01T00:14:25;4.40;;;2.63;;
11024;SDS011;22890;51.820;8.682;2023-03-01T00:16:52;3.60;;;2.70;;
11024;SDS011;22890;51.820;8.682;2023-03-01T00:19:20;2.77;;;2.13;;
11024;SDS011;22890;51.820;8.682;2023-03-01T00:21:48;2.40;;;2.13;;
11024;SDS011;22890;51.820;8.682;2023-03-01T00:24:14;4.43;;;2.80;;
11024;SDS011;22890;51.820;8.682;2023-03-01T00:26:41;2.63;;;2.20;;
11024;SDS011;22890;51.820;8.682;2023-03-01T00:29:08;3.30;;;2.93;;
11024;SDS011;22890;51.820;8.682;2023-03-01T00:31:35;4.10;;;2.50;;
11024;SDS011;22890;51.820;8.682;2023-03-01T00:34:04;3.20;;;2.57;;
11024;SDS011;22890;51.820;8.682;2023-03-01T00:36:32;4.67;;;2.60;;
11024;SDS011;22890;51.820;8.682;2023-03-01T00:39:01;5.23;;;2.33;;
11024;SDS011;22890;51.820;8.682;2023-03-01T00:41:29;4.50;;;2.80;;
11024;SDS011;22890;51.820;8.682;2023-03-01T00:43:55;2.73;;;2.03;;
11024;SDS011;22890;51.820;8.682;2023-03-01T00:46:24;3.10;;;2.17;;
11024;SDS011;22890;51.820;8.682;2023-03-01T00:48:53;3.00;;;2.70;;
11024;SDS011;22890;51.820;8.682;2023-03-01T00:51:24;2.83;;;2.20;;
11024;SDS011;22890;51.820;8.682;2023-03-01T00:53:53;6.17;;;2.30;;
11024;SDS011;22890;51.820;8.682;2023-03-01T00:56:22;5.17;;;2.93;;
11024;SDS011;22890;51.820;8.682;2023-03-01T00:58:49;4.07;;;2.47;;
11024;SDS011;22890;51.820;8.682;2023-03-01T01:01:19;2.80;;;1.97;;
11024;SDS011;22890;51.820;8.682;2023-03-01T01:03:55;2.73;;;2.03;;
11024;SDS011;22890;51.820;8.682;2023-03-01T01:06:29;3.53;;;2.70;;
11024;SDS011;22890;51.820;8.682;2023-03-01T01:08:58;5.23;;;2.93;;
11024;SDS011;22890;51.820;8.682;2023-03-01T01:11:25;5.67;;;2.73;;
11024;SDS011;22890;51.820;8.682;2023-03-01T01:13:54;5.50;;;2.93;;
11024;SDS011;22890;51.820;8.682;2023-03-01T01:16:21;7.17;;;3.30;;
11024;SDS011;22890;51.820;8.682;2023-03-01T01:18:50;2.93;;;2.53;;
11024;SDS011;22890;51.820;8.682;2023-03-01T01:21:17;3.30;;;2.17;;
11024;SDS011;22890;51.820;8.682;2023-03-01T01:23:47;6.17;;;2.90;;
11024;SDS011;22890;51.820;8.682;2023-03-01T01:26:16;3.90;;;2.57;;
11024;SDS011;22890;51.820;8.682;2023-03-01T01:28:48;3.27;;;2.47;;
11024;SDS011;22890;51.820;8.682;2023-03-01T01:31:16;2.90;;;2.17;;
11024;SDS011;22890;51.820;8.682;2023-03-01T01:33:43;4.00;;;2.13;;
11024;SDS011;22890;51.820;8.682;2023-03-01T01:36:10;4.07;;;2.70;;
11024;SDS011;22890;51.820;8.682;2023-03-01T01:38:37;3.40;;;2.77;;
11024;SDS011;22890;51.820;8.682;2023-03-01T01:41:07;3.73;;;2.50;;
11024;SDS011;22890;51.820;8.682;2023-03-01T01:43:35;4.57;;;2.53;;
11024;SDS011;22890;51.820;8.682;2023-03-01T01:48:46;4.50;;;2.60;;
11024;SDS011;22890;51.820;8.682;2023-03-01T01:51:21;4.27;;;3.13;;
11024;SDS011;22890;51.820;8.682;2023-03-01T01:53:53;3.70;;;2.47;;
11024;SDS011;22890;51.820;8.682;2023-03-01T01:56:26;2.97;;;2.37;;
11024;SDS011;22890;51.820;8.682;2023-03-01T01:58:55;2.83;;;2.40;;
11024;SDS011;22890;51.820;8.682;2023-03-01T02:01:22;4.03;;;2.60;;
11024;SDS011;22890;51.820;8.682;2023-03-01T02:03:50;5.67;;;2.80;;
11024;SDS011;22890;51.820;8.682;2023-03-01T02:08:45;4.90;;;2.47;;
11024;SDS011;22890;51.820;8.682;2023-03-01T02:11:14;3.57;;;2.53;;
11024;SDS011;22890;51.820;8.682;2023-03-01T02:13:41;4.70;;;2.60;;
11024;SDS011;22890;51.820;8.682;2023-03-01T02:16:10;3.77;;;2.80;;
11024;SDS011;22890;51.820;8.682;2023-03-01T02:18:39;5.20;;;2.47;;
11024;SDS011;22890;51.820;8.682;2023-03-01T02:23:41;3.17;;;2.33;;
11024;SDS011;22890;51.820;8.682;2023-03-01T02:26:09;4.87;;;3.00;;
11024;SDS011;22890;51.820;8.682;2023-03-01T02:28:43;5.00;;;2.93;;
11024;SDS011;22890;51.820;8.682;2023-03-01T02:31:13;3.40;;;2.30;;
11024;SDS011;22890;51.820;8.682;2023-03-01T02:34:01;3.60;;;2.60;;
11024;SDS011;22890;51.820;8.682;2023-03-01T02:36:31;7.53;;;2.53;;
11024;SDS011;22890;51.820;8.682;2023-03-01T02:39:03;5.97;;;2.70;;
11024;SDS011;22890;51.820;8.682;2023-03-01T02:41:34;4.73;;;3.20;;
11024;SDS011;22890;51.820;8.682;2023-03-01T02:44:04;3.40;;;2.50;;
11024;SDS011;22890;51.820;8.682;2023-03-01T02:46:31;2.80;;;2.33;;
11024;SDS011;22890;51.820;8.682;2023-03-01T02:48:59;6.70;;;2.60;;
11024;SDS011;22890;51.820;8.682;2023-03-01T02:54:05;5.93;;;3.10;;
11024;SDS011;22890;51.820;8.682;2023-03-01T02:56:38;4.17;;;2.53;;
11024;SDS011;22890;51.820;8.682;2023-03-01T02:59:05;5.37;;;2.73;;
11024;SDS011;22890;51.820;8.682;2023-03-01T03:01:34;4.07;;;2.60;;
11024;SDS011;22890;51.820;8.682;2023-03-01T03:04:06;3.50;;;2.47;;
11024;SDS011;22890;51.820;8.682;2023-03-01T03:06:45;4.57;;;2.93;;
11024;SDS011;22890;51.820;8.682;2023-03-01T03:09:12;7.10;;;3.00;;
11024;SDS011;22890;51.820;8.682;2023-03-01T03:11:42;4.03;;;2.90;;
11024;SDS011;22890;51.820;8.682;2023-03-01T03:14:10;6.80;;;2.90;;
11024;SDS011;22890;51.820;8.682;2023-03-01T03:16:44;6.50;;;2.70;;
11024;SDS011;22890;51.820;8.682;2023-03-01T03:19:13;4.00;;;2.90;;
11024;SDS011;22890;51.820;8.682;2023-03-01T03:21:41;5.67;;;3.13;;
11024;SDS011;22890;51.820;8.682;2023-03-01T03:24:08;4.50;;;3.07;;
11024;SDS011;22890;51.820;8.682;2023-03-01T03:26:35;5.87;;;3.33;;
11024;SDS011;22890;51.820;8.682;2023-03-01T03:29:02;7.57;;;3.50;;
11024;SDS011;22890;51.820;8.682;2023-03-01T03:31:29;5.00;;;2.60;;
11024;SDS011;22890;51.820;8.682;2023-03-01T03:33:57;5.20;;;2.83;;
11024;SDS011;22890;51.820;8.682;2023-03-01T03:36:24;4.20;;;2.50;;
11024;SDS011;22890;51.820;8.682;2023-03-01T03:38:52;6.17;;;2.87;;
11024;SDS011;22890;51.820;8.682;2023-03-01T03:41:19;4.20;;;2.80;;
11024;SDS011;22890;51.820;8.682;2023-03-01T03:43:46;4.37;;;2.60;;
11024;SDS011;22890;51.820;8.682;2023-03-01T03:46:13;4.33;;;2.80;;
11024;SDS011;22890;51.820;8.682;2023-03-01T03:48:41;6.80;;;3.07;;
11024;SDS011;22890;51.820;8.682;2023-03-01T03:51:10;3.83;;;2.80;;
11024;SDS011;22890;51.820;8.682;2023-03-01T03:53:39;5.43;;;2.70;;
11024;SDS011;22890;51.820;8.682;2023-03-01T03:56:06;6.77;;;2.90;;
11024;SDS011;22890;51.820;8.682;2023-03-01T03:58:33;5.87;;;2.67;;
11024;SDS011;22890;51.820;8.682;2023-03-01T04:01:00;4.17;;;2.57;;
11024;SDS011;22890;51.820;8.682;2023-03-01T04:03:27;6.30;;;3.10;;
11024;SDS011;22890;51.820;8.682;2023-03-01T04:05:57;4.73;;;2.67;;
11024;SDS011;22890;51.820;8.682;2023-03-01T04:08:24;3.67;;;2.73;;
11024;SDS011;22890;51.820;8.682;2023-03-01T04:10:52;9.13;;;3.33;;
11024;SDS011;22890;51.820;8.682;2023-03-01T04:13:24;4.33;;;2.80;;
11024;SDS011;22890;51.820;8.682;2023-03-01T04:15:52;4.40;;;2.67;;
11024;SDS011;22890;51.820;8.682;2023-03-01T04:18:20;5.83;;;3.27;;
11024;SDS011;22890;51.820;8.682;2023-03-01T04:20:48;8.17;;;4.10;;
11024;SDS011;22890;51.820;8.682;2023-03-01T04:23:16;3.77;;;2.80;;
11024;SDS011;22890;51.820;8.682;2023-03-01T04:25:50;5.53;;;2.80;;
11024;SDS011;22890;51.820;8.682;2023-03-01T04:30:51;3.67;;;2.30;;
11024;SDS011;22890;51.820;8.682;2023-03-01T04:33:21;3.03;;;2.30;;
11024;SDS011;22890;51.820;8.682;2023-03-01T04:35:48;4.20;;;2.80;;
11024;SDS011;22890;51.820;8.682;2023-03-01T04:38:16;5.30;;;2.80;;
11024;SDS011;22890;51.820;8.682;2023-03-01T04:40:44;6.70;;;3.13;;
11024;SDS011;22890;51.820;8.682;2023-03-01T04:43:11;3.90;;;2.67;;
11024;SDS011;22890;51.820;8.682;2023-03-01T04:45:41;4.43;;;2.50;;
11024;SDS011;22890;51.820;8.682;2023-03-01T04:48:09;5.57;;;2.93;;
11024;SDS011;22890;51.820;8.682;2023-03-01T04:50:36;4.80;;;3.03;;
11024;SDS011;22890;51.820;8.682;2023-03-01T04:53:03;3.83;;;2.73;;
11024;SDS011;22890;51.820;8.682;2023-03-01T04:55:30;3.13;;;2.77;;
11024;SDS011;22890;51.820;8.682;2023-03-01T04:57:57;4.60;;;2.60;;
11024;SDS011;22890;51.820;8.682;2023-03-01T05:00:24;3.70;;;2.77;;
11024;SDS011;22890;51.820;8.682;2023-03-01T05:02:53;7.43;;;3.10;;
11024;SDS011;22890;51.820;8.682;2023-03-01T05:05:27;4.93;;;3.30;;
11024;SDS011;22890;51.820;8.682;2023-03-01T05:07:57;6.33;;;2.93;;
11024;SDS011;22890;51.820;8.682;2023-03-01T05:10:29;5.17;;;3.10;;
11024;SDS011;22890;51.820;8.682;2023-03-01T05:12:57;4.77;;;3.30;;
11024;SDS011;22890;51.820;8.682;2023-03-01T05:15:28;6.20;;;3.20;;
11024;SDS011;22890;51.820;8.682;2023-03-01T05:17:58;5.83;;;3.53;;
11024;SDS011;22890;51.820;8.682;2023-03-01T05:20:26;4.33;;;2.47;;
11024;SDS011;22890;51.820;8.682;2023-03-01T05:22:55;5.37;;;3.00;;
11024;SDS011;22890;51.820;8.682;2023-03-01T05:25:25;5.87;;;3.63;;
11024;SDS011;22890;51.820;8.682;2023-03-01T05:27:52;3.93;;;2.70;;
11024;SDS011;22890;51.820;8.682;2023-03-01T05:30:19;4.43;;;2.60;;
11024;SDS011;22890;51.820;8.682;2023-03-01T05:32:48;7.23;;;3.77;;
11024;SDS011;22890;51.820;8.682;2023-03-01T05:35:16;5.00;;;3.20;;
11024;SDS011;22890;51.820;8.682;2023-03-01T05:37:44;7.88;;;5.05;;
11024;SDS011;22890;51.820;8.682;2023-03-01T05:40:14;6.83;;;3.40;;
11024;SDS011;22890;51.820;8.682;2023-03-01T05:42:44;5.33;;;3.53;;
11024;SDS011;22890;51.820;8.682;2023-03-01T05:45:12;7.23;;;3.57;;
11024;SDS011;22890;51.820;8.682;2023-03-01T05:47:40;9.43;;;3.10;;
11024;SDS011;22890;51.820;8.682;2023-03-01T05:50:12;6.30;;;3.03;;
11024;SDS011;22890;51.820;8.682;2023-03-01T05:52:40;4.20;;;2.57;;
11024;SDS011;22890;51.820;8.682;2023-03-01T05:55:07;5.57;;;2.83;;
11024;SDS011;22890;51.820;8.682;2023-03-01T05:57:34;9.67;;;3.70;;
11024;SDS011;22890;51.820;8.682;2023-03-01T06:00:02;6.40;;;2.40;;
11024;SDS011;22890;51.820;8.682;2023-03-01T06:02:37;4.50;;;2.70;;
11024;SDS011;22890;51.820;8.682;2023-03-01T06:05:05;4.03;;;2.70;;
11024;SDS011;22890;51.820;8.682;2023-03-01T06:07:33;4.17;;;2.87;;
11024;SDS011;22890;51.820;8.682;2023-03-01T06:09:59;5.03;;;3.00;;
11024;SDS011;22890;51.820;8.682;2023-03-01T06:12:29;4.63;;;2.90;;
11024;SDS011;22890;51.820;8.682;2023-03-01T06:15:00;5.07;;;3.47;;
11024;SDS011;22890;51.820;8.682;2023-03-01T06:17:31;4.33;;;2.73;;
11024;SDS011;22890;51.820;8.682;2023-03-01T06:20:01;5.33;;;3.57;;
11024;SDS011;22890;51.820;8.682;2023-03-01T06:22:28;6.67;;;3.20;;
11024;SDS011;22890;51.820;8.682;2023-03-01T06:24:55;6.83;;;3.57;;
11024;SDS011;22890;51.820;8.682;2023-03-01T06:27:22;8.10;;;3.23;;
11024;SDS011;22890;51.820;8.682;2023-03-01T06:29:49;4.13;;;2.47;;
11024;SDS011;22890;51.820;8.682;2023-03-01T06:32:16;7.72;;;4.97;;
11024;SDS011;22890;51.820;8.682;2023-03-01T06:34:43;13.03;;;4.03;;
11024;SDS011;22890;51.820;8.682;2023-03-01T06:37:10;7.60;;;4.17;;
11024;SDS011;22890;51.820;8.682;2023-03-01T06:39:37;8.53;;;3.70;;
11024;SDS011;22890;51.820;8.682;2023-03-01T06:42:05;5.30;;;3.30;;
11024;SDS011;22890;51.820;8.682;2023-03-01T06:44:32;5.70;;;3.43;;
11024;SDS011;22890;51.820;8.682;2023-03-01T06:46:59;6.03;;;3.70;;
11024;SDS011;22890;51.820;8.682;2023-03-01T06:49:26;4.90;;;3.20;;
11024;SDS011;22890;51.820;8.682;2023-03-01T06:51:53;6.50;;;3.67;;
11024;SDS011;22890;51.820;8.682;2023-03-01T06:54:20;5.73;;;3.90;;
11024;SDS011;22890;51.820;8.682;2023-03-01T06:56:48;5.77;;;3.47;;
11024;SDS011;22890;51.820;8.682;2023-03-01T06:59:16;13.77;;;3.50;;
11024;SDS011;22890;51.820;8.682;2023-03-01T07:01:43;5.57;;;3.67;;
11024;SDS011;22890;51.820;8.682;2023-03-01T07:04:10;8.10;;;4.70;;
11024;SDS011;22890;51.820;8.682;2023-03-01T07:06:37;7.10;;;3.37;;
11024;SDS011;22890;51.820;8.682;2023-03-01T07:09:05;6.43;;;3.80;;
11024;SDS011;22890;51.820;8.682;2023-03-01T07:11:32;4.63;;;3.30;;
11024;SDS011;22890;51.820;8.682;2023-03-01T07:13:59;8.90;;;4.23;;
11024;SDS011;22890;51.820;8.682;2023-03-01T07:16:26;7.73;;;3.70;;
11024;SDS011;22890;51.820;8.682;2023-03-01T07:18:53;7.03;;;5.00;;
11024;SDS011;22890;51.820;8.682;2023-03-01T07:21:20;7.70;;;3.77;;
11024;SDS011;22890;51.820;8.682;2023-03-01T07:23:47;5.80;;;3.33;;
11024;SDS011;22890;51.820;8.682;2023-03-01T07:26:15;7.37;;;4.23;;
11024;SDS011;22890;51.820;8.682;2023-03-01T07:28:42;7.07;;;4.63;;
11024;SDS011;22890;51.820;8.682;2023-03-01T07:31:09;6.23;;;4.20;;
11024;SDS011;22890;51.820;8.682;2023-03-01T07:33:35;8.53;;;4.27;;
11024;SDS011;22890;51.820;8.682;2023-03-01T07:36:03;7.63;;;4.37;;
11024;SDS011;22890;51.820;8.682;2023-03-01T07:38:31;9.67;;;4.90;;
11024;SDS011;22890;51.820;8.682;2023-03-01T07:40:58;9.77;;;5.40;;
11024;SDS011;22890;51.820;8.682;2023-03-01T07:43:29;8.40;;;4.70;;
11024;SDS011;22890;51.820;8.682;2023-03-01T07:46:00;7.50;;;4.30;;
11024;SDS011;22890;51.820;8.682;2023-03-01T07:48:28;8.80;;;4.30;;
11024;SDS011;22890;51.820;8.682;2023-03-01T07:50:59;11.10;;;4.83;;
11024;SDS011;22890;51.820;8.682;2023-03-01T07:53:27;8.50;;;5.40;;
11024;SDS011;22890;51.820;8.682;2023-03-01T07:56:04;9.37;;;4.83;;
11024;SDS011;22890;51.820;8.682;2023-03-01T07:58:36;7.17;;;4.03;;
11024;SDS011;22890;51.820;8.682;2023-03-01T08:01:07;6.93;;;4.67;;
11024;SDS011;22890;51.820;8.682;2023-03-01T08:03:37;8.77;;;4.90;;
11024;SDS011;22890;51.820;8.682;2023-03-01T08:06:04;10.83;;;4.60;;
11024;SDS011;22890;51.820;8.682;2023-03-01T08:08:33;7.27;;;4.60;;
11024;SDS011;22890;51.820;8.682;2023-03-01T08:11:01;6.57;;;4.40;;
11024;SDS011;22890;51.820;8.682;2023-03-01T08:13:29;9.73;;;4.23;;
11024;SDS011;22890;51.820;8.682;2023-03-01T08:16:06;6.33;;;3.97;;
11024;SDS011;22890;51.820;8.682;2023-03-01T08:18:35;6.97;;;4.23;;
11024;SDS011;22890;51.820;8.682;2023-03-01T08:21:06;6.37;;;4.00;;
11024;SDS011;22890;51.820;8.682;2023-03-01T08:23:34;6.43;;;4.10;;
11024;SDS011;22890;51.820;8.682;2023-03-01T08:26:12;7.30;;;3.90;;
11024;SDS011;22890;51.820;8.682;2023-03-01T08:28:41;7.10;;;4.00;;
11024;SDS011;22890;51.820;8.682;2023-03-01T08:33:57;6.50;;;3.90;;
11024;SDS011;22890;51.820;8.682;2023-03-01T08:36:27;4.60;;;3.40;;
11024;SDS011;22890;51.820;8.682;2023-03-01T08:38:59;3.90;;;3.17;;
11024;SDS011;22890;51.820;8.682;2023-03-01T08:41:26;6.70;;;4.10;;
11024;SDS011;22890;51.820;8.682;2023-03-01T08:43:53;6.00;;;3.50;;
11024;SDS011;22890;51.820;8.682;2023-03-01T08:46:25;7.03;;;3.63;;
11024;SDS011;22890;51.820;8.682;2023-03-01T08:48:56;6.77;;;3.83;;
11024;SDS011;22890;51.820;8.682;2023-03-01T08:51:24;6.37;;;3.40;;
11024;SDS011;22890;51.820;8.682;2023-03-01T08:53:51;6.50;;;3.90;;
11024;SDS011;22890;51.820;8.682;2023-03-01T08:56:18;6.90;;;3.87;;
11024;SDS011;22890;51.820;8.682;2023-03-01T08:58:46;6.77;;;3.53;;
11024;SDS011;22890;51.820;8.682;2023-03-01T09:01:15;5.53;;;3.70;;
11024;SDS011;22890;51.820;8.682;2023-03-01T09:03:43;7.30;;;3.93;;
11024;SDS011;22890;51.820;8.682;2023-03-01T09:06:11;4.97;;;3.27;;
11024;SDS011;22890;51.820;8.682;2023-03-01T09:08:39;4.77;;;3.33;;
11024;SDS011;22890;51.820;8.682;2023-03-01T09:11:09;4.70;;;3.60;;
11024;SDS011;22890;51.820;8.682;2023-03-01T09:13:37;6.37;;;4.50;;
11024;SDS011;22890;51.820;8.682;2023-03-01T09:16:04;7.23;;;4.43;;
11024;SDS011;22890;51.820;8.682;2023-03-01T09:18:33;6.37;;;3.70;;
11024;SDS011;22890;51.820;8.682;2023-03-01T09:21:10;6.27;;;4.47;;
11024;SDS011;22890;51.820;8.682;2023-03-01T09:23:43;5.13;;;3.40;;
11024;SDS011;22890;51.820;8.682;2023-03-01T09:26:16;8.40;;;3.80;;
11024;SDS011;22890;51.820;8.682;2023-03-01T09:28:45;5.07;;;3.70;;
11024;SDS011;22890;51.820;8.682;2023-03-01T09:31:13;5.40;;;3.50;;
11024;SDS011;22890;51.820;8.682;2023-03-01T09:33:41;6.03;;;3.37;;
11024;SDS011;22890;51.820;8.682;2023-03-01T09:36:13;5.43;;;3.97;;
11024;SDS011;22890;51.820;8.682;2023-03-01T09:38:42;6.30;;;3.13;;
11024;SDS011;22890;51.820;8.682;2023-03-01T09:41:23;6.00;;;3.77;;
11024;SDS011;22890;51.820;8.682;2023-03-01T09:44:01;5.63;;;3.27;;
11024;SDS011;22890;51.820;8.682;2023-03-01T09:46:37;5.80;;;3.20;;
11024;SDS011;22890;51.820;8.682;2023-03-01T09:51:56;5.97;;;3.37;;
11024;SDS011;22890;51.820;8.682;2023-03-01T09:54:31;9.67;;;4.30;;
11024;SDS011;22890;51.820;8.682;2023-03-01T09:57:06;5.67;;;3.10;;
11024;SDS011;22890;51.820;8.682;2023-03-01T09:59:54;4.00;;;2.77;;
11024;SDS011;22890;51.820;8.682;2023-03-01T10:02:45;4.87;;;3.53;;
11024;SDS011;22890;51.820;8.682;2023-03-01T10:05:42;7.23;;;4.43;;
11024;SDS011;22890;51.820;8.682;2023-03-01T10:10:46;11.83;;;4.77;;
11024;SDS011;22890;51.820;8.682;2023-03-01T10:13:19;6.13;;;3.70;;
11024;SDS011;22890;51.820;8.682;2023-03-01T10:15:51;5.20;;;4.03;;
11024;SDS011;22890;51.820;8.682;2023-03-01T10:18:23;5.47;;;3.67;;
11024;SDS011;22890;51.820;8.682;2023-03-01T10:20:57;9.40;;;3.47;;
11024;SDS011;22890;51.820;8.682;2023-03-01T10:23:26;6.53;;;4.00;;
11024;SDS011;22890;51.820;8.682;2023-03-01T10:28:29;4.23;;;2.93;;
11024;SDS011;22890;51.820;8.682;2023-03-01T10:31:05;8.07;;;3.83;;
11024;SDS011;22890;51.820;8.682;2023-03-01T10:33:41;5.63;;;3.33;;
11024;SDS011;22890;51.820;8.682;2023-03-01T10:36:08;4.80;;;3.13;;
11024;SDS011;22890;51.820;8.682;2023-03-01T10:38:49;7.23;;;3.80;;
11024;SDS011;22890;51.820;8.682;2023-03-01T10:41:20;5.50;;;3.53;;
11024;SDS011;22890;51.820;8.682;2023-03-01T10:43:53;6.20;;;3.10;;
11024;SDS011;22890;51.820;8.682;2023-03-01T10:46:22;4.77;;;3.47;;
11024;SDS011;22890;51.820;8.682;2023-03-01T10:51:33;5.73;;;3.50;;
11024;SDS011;22890;51.820;8.682;2023-03-01T10:54:00;6.80;;;3.10;;
11024;SDS011;22890;51.820;8.682;2023-03-01T10:56:28;5.73;;;3.50;;
11024;SDS011;22890;51.820;8.682;2023-03-01T10:59:04;7.63;;;3.47;;
11024;SDS011;22890;51.820;8.682;2023-03-01T11:01:32;5.47;;;3.37;;
11024;SDS011;22890;51.820;8.682;2023-03-01T11:06:34;6.97;;;3.70;;
11024;SDS011;22890;51.820;8.682;2023-03-01T11:09:22;4.77;;;3.50;;
11024;SDS011;22890;51.820;8.682;2023-03-01T11:11:54;4.57;;;4.07;;
11024;SDS011;22890;51.820;8.682;2023-03-01T11:14:23;6.67;;;3.83;;
11024;SDS011;22890;51.820;8.682;2023-03-01T11:22:48;5.40;;;3.90;;
11024;SDS011;22890;51.820;8.682;2023-03-01T11:25:19;7.07;;;4.43;;
11024;SDS011;22890;51.820;8.682;2023-03-01T11:27:50;7.27;;;4.40;;
11024;SDS011;22890;51.820;8.682;2023-03-01T11:30:20;5.70;;;3.60;;
11024;SDS011;22890;51.820;8.682;2023-03-01T11:33:03;4.67;;;3.20;;
11024;SDS011;22890;51.820;8.682;2023-03-01T11:35:53;5.73;;;3.80;;
11024;SDS011;22890;51.820;8.682;2023-03-01T11:38:29;5.83;;;3.53;;
11024;SDS011;22890;51.820;8.682;2023-03-01T11:41:05;6.20;;;3.57;;
11024;SDS011;22890;51.820;8.682;2023-03-01T11:43:47;6.00;;;4.10;;
11024;SDS011;22890;51.820;8.682;2023-03-01T11:46:34;6.40;;;3.70;;
11024;SDS011;22890;51.820;8.682;2023-03-01T11:54:54;6.00;;;3.67;;
11024;SDS011;22890;51.820;8.682;2023-03-01T12:00:25;5.10;;;3.43;;
11024;SDS011;22890;51.820;8.682;2023-03-01T12:03:17;5.67;;;3.50;;
11024;SDS011;22890;51.820;8.682;2023-03-01T12:09:09;6.00;;;3.60;;
11024;SDS011;22890;51.820;8.682;2023-03-01T12:17:13;7.43;;;3.10;;
11024;SDS011;22890;51.820;8.682;2023-03-01T12:22:46;3.33;;;2.60;;
11024;SDS011;22890;51.820;8.682;2023-03-01T12:26:03;5.20;;;3.60;;
11024;SDS011;22890;51.820;8.682;2023-03-01T12:44:12;3.80;;;3.30;;
11024;SDS011;22890;51.820;8.682;2023-03-01T12:46:52;8.63;;;3.33;;
11024;SDS011;22890;51.820;8.682;2023-03-01T12:49:54;5.60;;;3.63;;
11024;SDS011;22890;51.820;8.682;2023-03-01T12:52:41;5.43;;;3.97;;
11024;SDS011;22890;51.820;8.682;2023-03-01T12:58:27;2.93;;;2.50;;
11024;SDS011;22890;51.820;8.682;2023-03-01T13:06:32;6.03;;;3.30;;
11024;SDS011;22890;51.820;8.682;2023-03-01T13:09:14;5.17;;;3.10;;
11024;SDS011;22890;51.820;8.682;2023-03-01T13:12:01;6.33;;;3.40;;
11024;SDS011;22890;51.820;8.682;2023-03-01T13:14:35;5.17;;;3.00;;
11024;SDS011;22890;51.820;8.682;2023-03-01T13:17:03;2.67;;;2.00;;
11024;SDS011;22890;51.820;8.682;2023-03-01T13:19:30;4.47;;;2.70;;
11024;SDS011;22890;51.820;8.682;2023-03-01T13:22:24;3.20;;;2.67;;
11024;SDS011;22890;51.820;8.682;2023-03-01T13:25:00;3.30;;;2.80;;
11024;SDS011;22890;51.820;8.682;2023-03-01T13:27:29;3.27;;;2.27;;
11024;SDS011;22890;51.820;8.682;2023-03-01T13:29:57;4.73;;;3.30;;
11024;SDS011;22890;51.820;8.682;2023-03-01T13:32:32;5.43;;;3.07;;
11024;SDS011;22890;51.820;8.682;2023-03-01T13:37:45;5.03;;;2.70;;
11024;SDS011;22890;51.820;8.682;2023-03-01T13:42:45;3.40;;;2.90;;
11024;SDS011;22890;51.820;8.682;2023-03-01T13:45:34;4.30;;;3.00;;
11024;SDS011;22890;51.820;8.682;2023-03-01T13:48:16;4.07;;;2.97;;
11024;SDS011;22890;51.820;8.682;2023-03-01T13:50:54;3.87;;;2.73;;
11024;SDS011;22890;51.820;8.682;2023-03-01T13:53:31;7.03;;;3.43;;
11024;SDS011;22890;51.820;8.682;2023-03-01T13:56:03;3.27;;;2.90;;
11024;SDS011;22890;51.820;8.682;2023-03-01T13:58:33;6.00;;;3.10;;
11024;SDS011;22890;51.820;8.682;2023-03-01T14:01:20;7.53;;;3.23;;
11024;SDS011;22890;51.820;8.682;2023-03-01T14:04:03;6.57;;;3.43;;
11024;SDS011;22890;51.820;8.682;2023-03-01T14:06:44;5.23;;;2.90;;
11024;SDS011;22890;51.820;8.682;2023-03-01T14:09:21;7.97;;;4.00;;
11024;SDS011;22890;51.820;8.682;2023-03-01T14:14:42;5.70;;;3.10;;
11024;SDS011;22890;51.820;8.682;2023-03-01T14:17:25;3.57;;;2.63;;
11024;SDS011;22890;51.820;8.682;2023-03-01T14:19:58;6.33;;;3.57;;
11024;SDS011;22890;51.820;8.682;2023-03-01T14:22:27;3.13;;;2.83;;
11024;SDS011;22890;51.820;8.682;2023-03-01T14:28:18;4.87;;;3.10;;
11024;SDS011;22890;51.820;8.682;2023-03-01T14:30:44;4.27;;;2.93;;
11024;SDS011;22890;51.820;8.682;2023-03-01T14:33:19;5.57;;;3.50;;
11024;SDS011;22890;51.820;8.682;2023-03-01T14:36:01;6.23;;;3.70;;
11024;SDS011;22890;51.820;8.682;2023-03-01T14:41:10;6.93;;;3.40;;
11024;SDS011;22890;51.820;8.682;2023-03-01T14:43:45;7.73;;;3.87;;
11024;SDS011;22890;51.820;8.682;2023-03-01T14:46:33;7.23;;;3.93;;
11024;SDS011;22890;51.820;8.682;2023-03-01T14:49:21;5.87;;;3.93;;
11024;SDS011;22890;51.820;8.682;2023-03-01T14:54:25;5.37;;;3.43;;
11024;SDS011;22890;51.820;8.682;2023-03-01T14:57:23;6.33;;;3.30;;
11024;SDS011;22890;51.820;8.682;2023-03-01T14:59:52;6.33;;;3.30;;
11024;SDS011;22890;51.820;8.682;2023-03-01T15:02:21;6.17;;;4.23;;
11024;SDS011;22890;51.820;8.682;2023-03-01T15:04:57;6.97;;;4.17;;
11024;SDS011;22890;51.820;8.682;2023-03-01T15:07:35;5.20;;;4.03;;
11024;SDS011;22890;51.820;8.682;2023-03-01T15:10:11;6.77;;;4.10;;
11024;SDS011;22890;51.820;8.682;2023-03-01T15:12:45;4.87;;;3.90;;
11024;SDS011;22890;51.820;8.682;2023-03-01T15:18:02;8.47;;;3.70;;
11024;SDS011;22890;51.820;8.682;2023-03-01T15:20:32;5.33;;;3.10;;
11024;SDS011;22890;51.820;8.682;2023-03-01T15:23:03;6.73;;;4.10;;
11024;SDS011;22890;51.820;8.682;2023-03-01T15:25:30;5.80;;;3.33;;
11024;SDS011;22890;51.820;8.682;2023-03-01T15:27:59;6.33;;;4.10;;
11024;SDS011;22890;51.820;8.682;2023-03-01T15:30:29;6.13;;;3.37;;
11024;SDS011;22890;51.820;8.682;2023-03-01T15:33:16;6.73;;;4.10;;
11024;SDS011;22890;51.820;8.682;2023-03-01T15:35:49;5.53;;;3.83;;
11024;SDS011;22890;51.820;8.682;2023-03-01T15:38:36;7.67;;;4.27;;
11024;SDS011;22890;51.820;8.682;2023-03-01T15:41:28;6.33;;;3.40;;
11024;SDS011;22890;51.820;8.682;2023-03-01T15:43:59;6.03;;;3.80;;
11024;SDS011;22890;51.820;8.682;2023-03-01T15:46:39;4.97;;;3.70;;
11024;SDS011;22890;51.820;8.682;2023-03-01T15:52:22;7.37;;;3.73;;
11024;SDS011;22890;51.820;8.682;2023-03-01T15:55:00;4.20;;;3.13;;
11024;SDS011;22890;51.820;8.682;2023-03-01T15:57:29;3.90;;;3.30;;
11024;SDS011;22890;51.820;8.682;2023-03-01T15:59:55;4.07;;;3.17;;
11024;SDS011;22890;51.820;8.682;2023-03-01T16:02:23;6.00;;;3.50;;
11024;SDS011;22890;51.820;8.682;2023-03-01T16:04:50;5.13;;;3.33;;
11024;SDS011;22890;51.820;8.682;2023-03-01T16:07:19;9.53;;;3.93;;
11024;SDS011;22890;51.820;8.682;2023-03-01T16:09:46;4.67;;;3.47;;
11024;SDS011;22890;51.820;8.682;2023-03-01T16:12:14;9.43;;;3.23;;
11024;SDS011;22890;51.820;8.682;2023-03-01T16:14:42;6.63;;;3.40;;
11024;SDS011;22890;51.820;8.682;2023-03-01T16:17:10;5.53;;;3.23;;
11024;SDS011;22890;51.820;8.682;2023-03-01T16:19:37;6.03;;;3.40;;
11024;SDS011;22890;51.820;8.682;2023-03-01T16:22:04;6.90;;;3.97;;
11024;SDS011;22890;51.820;8.682;2023-03-01T16:24:32;4.53;;;3.10;;
11024;SDS011;22890;51.820;8.682;2023-03-01T16:26:58;4.50;;;3.07;;
11024;SDS011;22890;51.820;8.682;2023-03-01T16:29:25;4.60;;;2.93;;
11024;SDS011;22890;51.820;8.682;2023-03-01T16:31:52;7.20;;;3.17;;
11024;SDS011;22890;51.820;8.682;2023-03-01T16:34:19;6.10;;;2.83;;
11024;SDS011;22890;51.820;8.682;2023-03-01T16:36:48;5.13;;;3.43;;
11024;SDS011;22890;51.820;8.682;2023-03-01T16:39:15;4.00;;;2.53;;
11024;SDS011;22890;51.820;8.682;2023-03-01T16:41:42;6.77;;;2.93;;
11024;SDS011;22890;51.820;8.682;2023-03-01T16:44:10;3.07;;;2.60;;
11024;SDS011;22890;51.820;8.682;2023-03-01T16:46:36;3.30;;;2.60;;
11024;SDS011;22890;51.820;8.682;2023-03-01T16:49:03;4.07;;;2.77;;
11024;SDS011;22890;51.820;8.682;2023-03-01T16:51:31;4.23;;;2.90;;
11024;SDS011;22890;51.820;8.682;2023-03-01T16:54:00;4.33;;;2.87;;